Time,TemperatureF,DewpointF,PressureIn,WindDirection,WindDirectionDegrees,WindSpeedMPH,WindSpeedGustMPH,Humidity,HourlyPrecipIn,Conditions,Clouds,dailyrainin,SoftwareType,DateUTC
2013-03-20 00:01:00,64.8,35.8,29.96,South,186,19.6,19.6,34,0.00,OVC,,0.00,WeatherDisplay:10.37,2013-03-20 07:01:00,
2013-03-20 00:06:00,64.1,36.6,29.95,South,184,12.0,12.0,36,0.00,OVC,,0.00,WeatherDisplay:10.37,2013-03-20 07:06:00,
2013-03-20 00:11:00,63.7,36.9,29.94,South,175,19.6,19.6,37,0.00,OVC,,0.00,WeatherDisplay:10.37,2013-03-20 07:11:00,
2013-03-20 00:16:00,63.4,36.7,29.94,South,185,18.4,18.4,37,0.00,OVC,,0.00,WeatherDisplay:10.37,2013-03-20 07:16:00,
2013-03-20 00:21:00,63.4,36.7,29.94,South,190,25.3,25.3,37,0.00,OVC,,0.00,WeatherDisplay:10.37,2013-03-20 07:21:00,
2013-03-20 00:27:00,63.5,36.7,29.94,South,181,24.2,24.2,37,0.00,OVC,,0.00,WeatherDisplay:10.37,2013-03-20 07:27:00,
2013-03-20 00:32:00,63.5,36.7,29.94,SSW,194,21.9,21.9,37,0.00,OVC,,0.00,WeatherDisplay:10.37,2013-03-20 07:32:00,
2013-03-20 00:37:00,63.0,37.0,29.94,SSW,198,23.0,23.0,38,0.00,OVC,,0.00,WeatherDisplay:10.37,2013-03-20 07:37:00,
2013-03-20 00:42:00,62.2,38.8,29.94,South,190,27.6,27.6,42,0.00,OVC,,0.00,WeatherDisplay:10.37,2013-03-20 07:42:00,
2013-03-20 00:47:00,61.9,39.1,29.94,South,188,27.0,27.0,43,0.00,OVC,,0.00,WeatherDisplay:10.37,2013-03-20 07:47:00,
2013-03-20 00:52:00,61.9,39.2,29.94,SSW,194,22.0,27.0,43,0.00,CLR,,0.00,WeatherDisplay:10.37,2013-03-20 07:52:00,
2013-03-20 00:57:00,61.8,39.1,29.94,SSW,210,20.7,20.7,43,0.00,OVC,,0.00,WeatherDisplay:10.37,2013-03-20 07:57:00,
2013-03-20 01:02:00,61.9,38.5,29.94,SW,216,17.0,30.0,42,0.00,CLR,,0.00,WeatherDisplay:10.37,2013-03-20 08:02:00,
2013-03-20 01:07:00,62.0,39.2,29.94,SW,236,23.0,23.0,43,0.00,OVC,,0.00,WeatherDisplay:10.37,2013-03-20 08:07:00,
2013-03-20 01:12:00,62.0,39.2,29.94,SW,226,22.0,26.0,43,0.00,CLR,,0.00,WeatherDisplay:10.37,2013-03-20 08:12:00,
2013-03-20 01:18:00,62.2,39.4,29.95,SSW,208,25.3,25.3,43,0.00,OVC,,0.00,WeatherDisplay:10.37,2013-03-20 08:18:00,
2013-03-20 01:23:00,61.5,39.9,29.95,SSW,199,27.0,27.0,45,0.00,OVC,,0.00,WeatherDisplay:10.37,2013-03-20 08:23:00,
2013-03-20 01:28:00,61.3,39.8,29.95,South,190,23.0,23.0,45,0.00,OVC,,0.00,WeatherDisplay:10.37,2013-03-20 08:28:00,
2013-03-20 01:33:00,60.6,39.7,29.95,South,187,23.0,23.0,46,0.00,OVC,,0.00,WeatherDisplay:10.37,2013-03-20 08:33:00,
2013-03-20 01:38:00,60.2,39.3,29.94,South,191,25.3,25.3,46,0.00,OVC,,0.00,WeatherDisplay:10.37,2013-03-20 08:38:00,
2013-03-20 01:43:00,60.7,39.2,29.94,SSW,205,39.1,39.1,45,0.00,OVC,,0.00,WeatherDisplay:10.37,2013-03-20 08:43:00,
2013-03-20 01:49:00,60.4,38.9,29.95,SSW,193,32.2,32.2,45,0.00,OVC,,0.00,WeatherDisplay:10.37,2013-03-20 08:49:00,
2013-03-20 01:54:00,59.7,38.9,29.93,SSW,205,31.1,31.1,46,0.00,OVC,,0.00,WeatherDisplay:10.37,2013-03-20 08:54:00,
2013-03-20 01:59:00,59.6,39.3,29.94,SSW,207,35.7,35.7,47,0.00,OVC,,0.00,WeatherDisplay:10.37,2013-03-20 08:59:00,
2013-03-20 02:04:00,59.3,39.6,29.94,SW,218,36.8,36.8,48,0.00,OVC,,0.00,WeatherDisplay:10.37,2013-03-20 09:04:00,
2013-03-20 02:09:00,59.2,39.5,29.94,SW,219,36.8,36.8,48,0.00,OVC,,0.00,WeatherDisplay:10.37,2013-03-20 09:09:00,
2013-03-20 02:15:00,58.9,39.8,29.93,SW,219,29.9,29.9,49,0.00,OVC,,0.00,WeatherDisplay:10.37,2013-03-20 09:15:00,
2013-03-20 02:20:00,58.6,40.0,29.94,SSW,211,32.2,32.2,50,0.00,OVC,,0.00,WeatherDisplay:10.37,2013-03-20 09:20:00,
2013-03-20 02:25:00,58.4,40.3,29.94,SSW,209,27.6,27.6,51,0.00,OVC,,0.00,WeatherDisplay:10.37,2013-03-20 09:25:00,
2013-03-20 02:30:00,58.4,40.3,29.94,SSW,194,26.5,26.5,51,0.00,OVC,,0.00,WeatherDisplay:10.37,2013-03-20 09:30:00,
2013-03-20 02:35:00,58.4,40.3,29.94,SW,225,31.1,31.1,51,0.00,OVC,,0.00,WeatherDisplay:10.37,2013-03-20 09:35:00,
2013-03-20 02:40:00,58.4,40.8,29.94,SSW,193,32.2,32.2,52,0.00,OVC,,0.00,WeatherDisplay:10.37,2013-03-20 09:40:00,
2013-03-20 02:45:00,58.1,41.0,29.93,SSW,202,31.1,31.1,53,0.00,OVC,,0.00,WeatherDisplay:10.37,2013-03-20 09:45:00,
2013-03-20 02:50:00,57.7,40.7,29.93,South,191,32.2,32.2,53,0.00,OVC,,0.00,WeatherDisplay:10.37,2013-03-20 09:50:00,
2013-03-20 02:56:00,57.7,40.7,29.93,SW,216,34.5,34.5,53,0.00,OVC,,0.00,WeatherDisplay:10.37,2013-03-20 09:56:00,
2013-03-20 03:01:00,57.1,41.1,29.93,SSW,200,23.0,23.0,55,0.00,OVC,,0.00,WeatherDisplay:10.37,2013-03-20 10:01:00,
2013-03-20 03:06:00,56.4,40.9,29.93,SSW,194,20.7,20.7,56,0.00,OVC,,0.00,WeatherDisplay:10.37,2013-03-20 10:06:00,
2013-03-20 03:12:00,56.0,41.4,29.93,South,191,23.0,23.0,58,0.00,OVC,,0.00,WeatherDisplay:10.37,2013-03-20 10:12:00,
2013-03-20 03:17:00,55.7,41.6,29.93,SSW,200,21.9,21.9,59,0.00,OVC,,0.00,WeatherDisplay:10.37,2013-03-20 10:17:00,
2013-03-20 03:22:00,55.4,41.7,29.93,SSW,195,23.0,23.0,60,0.00,OVC,,0.00,WeatherDisplay:10.37,2013-03-20 10:22:00,
2013-03-20 03:27:00,55.1,41.9,29.93,SSW,193,23.0,23.0,61,0.00,OVC,,0.00,WeatherDisplay:10.37,2013-03-20 10:27:00,
2013-03-20 03:32:00,54.8,41.6,29.93,SSW,199,18.0,23.0,61,0.00,CLR,,0.00,WeatherDisplay:10.37,2013-03-20 10:32:00,
2013-03-20 03:37:00,54.8,42.0,29.93,SSW,199,20.0,25.0,62,0.00,CLR,,0.00,WeatherDisplay:10.37,2013-03-20 10:37:00,
2013-03-20 03:42:00,54.6,41.9,29.92,SSW,200,17.0,23.0,62,0.00,CLR,,0.00,WeatherDisplay:10.37,2013-03-20 10:42:00,
2013-03-20 03:47:00,54.5,42.2,29.92,SSW,204,18.0,22.0,63,0.00,CLR,,0.00,WeatherDisplay:10.37,2013-03-20 10:47:00,
2013-03-20 03:52:00,54.6,41.8,29.92,SW,219,24.2,24.2,62,0.00,OVC,,0.00,WeatherDisplay:10.37,2013-03-20 10:52:00,
2013-03-20 03:57:00,54.5,42.2,29.93,SW,215,17.0,21.0,63,0.00,CLR,,0.00,WeatherDisplay:10.37,2013-03-20 10:57:00,
2013-03-20 04:02:00,54.6,41.8,29.92,SW,220,16.0,20.0,62,0.00,CLR,,0.00,WeatherDisplay:10.37,2013-03-20 11:02:00,
2013-03-20 04:07:00,54.6,41.8,29.92,SW,216,13.0,20.0,62,0.00,CLR,,0.00,WeatherDisplay:10.37,2013-03-20 11:07:00,
2013-03-20 04:12:00,54.5,41.8,29.92,SSW,205,12.0,18.0,62,0.00,CLR,,0.00,WeatherDisplay:10.37,2013-03-20 11:12:00,
2013-03-20 04:17:00,54.5,42.2,29.91,SSW,200,13.0,16.0,63,0.00,CLR,,0.00,WeatherDisplay:10.37,2013-03-20 11:17:00,
2013-03-20 04:22:00,54.6,42.2,29.92,SSW,200,16.0,18.0,63,0.00,CLR,,0.00,WeatherDisplay:10.37,2013-03-20 11:22:00,
2013-03-20 04:27:00,54.6,41.8,29.91,SSW,198,15.0,20.0,62,0.00,CLR,,0.00,WeatherDisplay:10.37,2013-03-20 11:27:00,
2013-03-20 04:32:00,54.5,42.1,29.92,SSW,197,17.0,22.0,63,0.00,CLR,,0.00,WeatherDisplay:10.37,2013-03-20 11:32:00,
2013-03-20 04:38:00,54.5,42.2,29.91,SSW,207,19.6,19.6,63,0.00,OVC,,0.00,WeatherDisplay:10.37,2013-03-20 11:38:00,
2013-03-20 04:43:00,54.7,41.9,29.92,SW,226,20.0,20.0,62,0.00,OVC,,0.00,WeatherDisplay:10.37,2013-03-20 11:43:00,
2013-03-20 04:48:00,54.4,41.6,29.92,SW,232,18.4,18.4,62,0.00,OVC,,0.00,WeatherDisplay:10.37,2013-03-20 11:48:00,
2013-03-20 04:53:00,55.1,41.9,29.91,SSW,205,20.7,20.7,61,0.00,OVC,,0.00,WeatherDisplay:10.37,2013-03-20 11:53:00,
2013-03-20 04:58:00,55.1,41.9,29.91,SSW,206,21.9,21.9,61,0.00,OVC,,0.00,WeatherDisplay:10.37,2013-03-20 11:58:00,
2013-03-20 05:03:00,54.8,41.6,29.91,SSW,198,18.4,18.4,61,0.00,OVC,,0.00,WeatherDisplay:10.37,2013-03-20 12:03:00,
2013-03-20 05:08:00,55.0,41.8,29.90,SSW,193,19.0,19.0,61,0.00,OVC,,0.00,WeatherDisplay:10.37,2013-03-20 12:08:00,
2013-03-20 05:13:00,55.0,41.8,29.90,South,188,20.7,20.7,61,0.00,OVC,,0.00,WeatherDisplay:10.37,2013-03-20 12:13:00,
2013-03-20 05:19:00,54.7,41.5,29.90,SSW,195,20.0,20.0,61,0.00,OVC,,0.00,WeatherDisplay:10.37,2013-03-20 12:19:00,
2013-03-20 05:24:00,54.5,41.3,29.90,SSW,192,17.3,17.3,61,0.00,OVC,,0.00,WeatherDisplay:10.37,2013-03-20 12:24:00,
2013-03-20 05:29:00,54.4,41.2,29.91,SW,216,15.0,15.0,61,0.00,OVC,,0.00,WeatherDisplay:10.37,2013-03-20 12:29:00,
2013-03-20 05:34:00,54.8,41.6,29.91,SSW,194,16.0,16.0,61,0.00,OVC,,0.00,WeatherDisplay:10.37,2013-03-20 12:34:00,
2013-03-20 05:39:00,55.4,41.3,29.91,SW,217,18.4,18.4,59,0.00,OVC,,0.00,WeatherDisplay:10.37,2013-03-20 12:39:00,
2013-03-20 05:44:00,56.1,41.5,29.91,SW,222,19.6,19.6,58,0.00,OVC,,0.00,WeatherDisplay:10.37,2013-03-20 12:44:00,
2013-03-20 05:50:00,56.0,41.0,29.92,SW,225,19.6,19.6,57,0.00,OVC,,0.00,WeatherDisplay:10.37,2013-03-20 12:50:00,
2013-03-20 05:55:00,55.8,41.2,29.91,SW,227,19.6,19.6,58,0.00,OVC,,0.00,WeatherDisplay:10.37,2013-03-20 12:55:00,
2013-03-20 06:00:00,55.9,41.3,29.91,SW,224,19.6,19.6,58,0.00,OVC,,0.00,WeatherDisplay:10.37,2013-03-20 13:00:00,
2013-03-20 06:05:00,55.8,41.2,29.91,SW,222,18.4,18.4,58,0.00,OVC,,0.00,WeatherDisplay:10.37,2013-03-20 13:05:00,
2013-03-20 06:10:00,55.7,41.1,29.91,SW,221,15.0,15.0,58,0.00,OVC,,0.00,WeatherDisplay:10.37,2013-03-20 13:10:00,
2013-03-20 06:15:00,55.6,41.0,29.91,SW,227,13.0,13.0,58,0.00,OVC,,0.00,WeatherDisplay:10.37,2013-03-20 13:15:00,
2013-03-20 06:20:00,55.5,41.0,29.91,SW,223,15.0,15.0,58,0.00,OVC,,0.00,WeatherDisplay:10.37,2013-03-20 13:20:00,
2013-03-20 06:25:00,55.6,41.0,29.90,SSW,205,16.1,16.1,58,0.00,OVC,,0.00,WeatherDisplay:10.37,2013-03-20 13:25:00,
2013-03-20 06:31:00,55.8,41.2,29.91,SW,217,17.0,17.0,58,0.00,OVC,,0.00,WeatherDisplay:10.37,2013-03-20 13:31:00,
2013-03-20 06:36:00,55.6,41.0,29.91,SSW,198,15.0,15.0,58,0.00,OVC,,0.00,WeatherDisplay:10.37,2013-03-20 13:36:00,
2013-03-20 06:41:00,55.6,41.0,29.91,South,190,18.4,18.4,58,0.00,OVC,,0.00,WeatherDisplay:10.37,2013-03-20 13:41:00,
2013-03-20 06:47:00,56.0,41.4,29.92,SSW,192,25.3,25.3,58,0.00,OVC,,0.00,WeatherDisplay:10.37,2013-03-20 13:47:00,
2013-03-20 06:52:00,56.1,41.5,29.91,South,188,21.9,21.9,58,0.00,OVC,,0.00,WeatherDisplay:10.37,2013-03-20 13:52:00,
2013-03-20 06:57:00,56.2,41.6,29.91,South,186,24.0,24.0,58,0.00,OVC,,0.00,WeatherDisplay:10.37,2013-03-20 13:57:00,
2013-03-20 07:02:00,56.2,41.6,29.91,South,186,25.3,25.3,58,0.00,OVC,,0.00,WeatherDisplay:10.37,2013-03-20 14:02:00,
2013-03-20 07:07:00,56.3,41.8,29.91,South,191,22.0,27.0,58,0.00,CLR,,0.00,WeatherDisplay:10.37,2013-03-20 14:07:00,
2013-03-20 07:12:00,56.4,41.8,29.92,SSW,194,24.0,29.0,58,0.00,CLR,,0.00,WeatherDisplay:10.37,2013-03-20 14:12:00,
2013-03-20 07:17:00,56.6,41.5,29.91,SSW,196,23.0,28.0,57,0.00,CLR,,0.00,WeatherDisplay:10.37,2013-03-20 14:17:00,
2013-03-20 07:23:00,56.6,41.5,29.91,SSW,193,23.0,27.0,57,0.00,CLR,,0.00,WeatherDisplay:10.37,2013-03-20 14:23:00,
2013-03-20 07:28:00,56.6,41.5,29.91,South,191,22.0,22.0,57,0.00,OVC,,0.00,WeatherDisplay:10.37,2013-03-20 14:28:00,
2013-03-20 07:33:00,56.6,41.5,29.91,SSW,196,24.2,24.2,57,0.00,OVC,,0.00,WeatherDisplay:10.37,2013-03-20 14:33:00,
2013-03-20 07:38:00,56.9,41.8,29.92,South,184,26.5,26.5,57,0.00,OVC,,0.00,WeatherDisplay:10.37,2013-03-20 14:38:00,
2013-03-20 07:43:00,57.1,42.0,29.92,South,190,26.5,26.5,57,0.00,OVC,,0.00,WeatherDisplay:10.37,2013-03-20 14:43:00,
2013-03-20 07:48:00,56.9,41.8,29.92,South,182,25.3,25.3,57,0.00,OVC,,0.00,WeatherDisplay:10.37,2013-03-20 14:48:00,
2013-03-20 07:53:00,57.2,42.1,29.92,South,185,26.5,26.5,57,0.00,OVC,,0.00,WeatherDisplay:10.37,2013-03-20 14:53:00,
2013-03-20 07:58:00,57.3,41.7,29.92,South,177,24.0,24.0,56,0.00,OVC,,0.00,WeatherDisplay:10.37,2013-03-20 14:58:00,
2013-03-20 08:04:00,57.5,41.9,29.92,South,175,22.0,22.0,56,0.00,OVC,,0.00,WeatherDisplay:10.37,2013-03-20 15:04:00,
2013-03-20 08:09:00,57.8,42.2,29.92,South,178,20.7,20.7,56,0.00,OVC,,0.00,WeatherDisplay:10.37,2013-03-20 15:09:00,
2013-03-20 08:14:00,58.4,42.3,29.93,South,184,23.0,23.0,55,0.00,OVC,,0.00,WeatherDisplay:10.37,2013-03-20 15:14:00,
2013-03-20 08:19:00,58.8,42.2,29.93,South,186,19.6,19.6,54,0.00,OVC,,0.00,WeatherDisplay:10.37,2013-03-20 15:19:00,
2013-03-20 08:25:00,59.1,42.0,29.92,SSW,192,17.3,17.3,53,0.00,OVC,,0.00,WeatherDisplay:10.37,2013-03-20 15:25:00,
2013-03-20 08:30:00,59.4,42.3,29.93,SSW,196,19.6,19.6,53,0.00,OVC,,0.00,WeatherDisplay:10.37,2013-03-20 15:30:00,
2013-03-20 08:35:00,59.8,42.1,29.93,SSW,212,19.6,19.6,52,0.00,CLR,,0.00,WeatherDisplay:10.37,2013-03-20 15:35:00,
2013-03-20 08:40:00,60.5,42.3,29.94,SSW,200,18.4,18.4,51,0.00,OVC,,0.00,WeatherDisplay:10.37,2013-03-20 15:40:00,
2013-03-20 08:45:00,60.7,41.9,29.94,SW,226,24.0,24.0,50,0.00,OVC,,0.00,WeatherDisplay:10.37,2013-03-20 15:45:00,
2013-03-20 08:50:00,61.1,42.3,29.94,SW,217,25.3,25.3,50,0.00,OVC,,0.00,WeatherDisplay:10.37,2013-03-20 15:50:00,
2013-03-20 08:56:00,61.6,42.2,29.93,WSW,252,26.5,26.5,49,0.00,OVC,,0.00,WeatherDisplay:10.37,2013-03-20 15:56:00,
2013-03-20 09:01:00,62.3,42.3,29.94,WSW,242,28.8,28.8,48,0.00,OVC,,0.00,WeatherDisplay:10.37,2013-03-20 16:01:00,
2013-03-20 09:06:00,62.7,42.2,29.93,SW,226,30.0,30.0,47,0.00,OVC,,0.00,WeatherDisplay:10.37,2013-03-20 16:06:00,
2013-03-20 09:11:00,62.2,42.3,29.93,WSW,242,29.0,29.0,48,0.00,OVC,,0.00,WeatherDisplay:10.37,2013-03-20 16:11:00,
2013-03-20 09:17:00,62.3,42.3,29.93,SW,224,26.0,26.0,48,0.00,OVC,,0.00,WeatherDisplay:10.37,2013-03-20 16:17:00,
2013-03-20 09:22:00,62.7,42.2,29.94,SSW,196,25.3,25.3,47,0.00,OVC,,0.00,WeatherDisplay:10.37,2013-03-20 16:22:00,
2013-03-20 09:27:00,63.1,42.0,29.93,SW,229,25.3,25.3,46,0.00,OVC,,0.00,WeatherDisplay:10.37,2013-03-20 16:27:00,
2013-03-20 09:32:00,63.4,41.7,29.93,South,186,19.6,19.6,45,0.00,OVC,,0.00,WeatherDisplay:10.37,2013-03-20 16:32:00,
2013-03-20 09:37:00,63.6,41.9,29.93,SSW,210,24.2,24.2,45,0.00,OVC,,0.00,WeatherDisplay:10.37,2013-03-20 16:37:00,
2013-03-20 09:42:00,63.6,41.9,29.93,SSW,205,20.7,20.7,45,0.00,OVC,,0.00,WeatherDisplay:10.37,2013-03-20 16:42:00,
2013-03-20 09:47:00,63.7,41.9,29.93,SW,217,21.0,21.0,45,0.00,OVC,,0.00,WeatherDisplay:10.37,2013-03-20 16:47:00,
2013-03-20 09:52:00,64.0,41.6,29.94,South,186,19.6,19.6,44,0.00,OVC,,0.00,WeatherDisplay:10.37,2013-03-20 16:52:00,
2013-03-20 09:57:00,64.5,41.5,29.93,SSW,202,20.0,20.0,43,0.00,OVC,,0.00,WeatherDisplay:10.37,2013-03-20 16:57:00,
2013-03-20 10:02:00,64.0,41.0,29.94,SSW,207,17.3,17.3,43,0.00,OVC,,0.00,WeatherDisplay:10.37,2013-03-20 17:02:00,
2013-03-20 10:07:00,64.3,41.3,29.94,SSW,208,19.6,19.6,43,0.00,OVC,,0.00,WeatherDisplay:10.37,2013-03-20 17:07:00,
2013-03-20 10:12:00,65.0,41.3,29.94,SW,220,20.0,26.0,42,0.00,CLR,,0.00,WeatherDisplay:10.37,2013-03-20 17:12:00,
2013-03-20 10:17:00,66.1,41.7,29.94,SW,218,17.0,23.0,41,0.00,CLR,,0.00,WeatherDisplay:10.37,2013-03-20 17:17:00,
2013-03-20 10:22:00,65.5,41.2,29.94,SW,218,14.0,20.0,41,0.00,CLR,,0.00,WeatherDisplay:10.37,2013-03-20 17:22:00,
2013-03-20 10:27:00,65.7,41.3,29.94,SW,230,16.0,22.0,41,0.00,CLR,,0.00,WeatherDisplay:10.37,2013-03-20 17:27:00,
2013-03-20 10:32:00,66.2,41.8,29.94,SW,220,16.0,22.0,41,0.00,CLR,,0.00,WeatherDisplay:10.37,2013-03-20 17:32:00,
2013-03-20 10:37:00,66.9,41.1,29.93,SSW,212,18.0,22.0,39,0.00,CLR,,0.00,WeatherDisplay:10.37,2013-03-20 17:37:00,
2013-03-20 10:42:00,66.5,40.8,29.93,SW,223,24.2,24.2,39,0.00,OVC,,0.00,WeatherDisplay:10.37,2013-03-20 17:42:00,
2013-03-20 10:47:00,66.8,40.4,29.93,SW,230,18.0,25.0,38,0.00,CLR,,0.00,WeatherDisplay:10.37,2013-03-20 17:47:00,
2013-03-20 10:52:00,67.7,40.5,29.93,SW,221,20.0,27.0,37,0.00,CLR,,0.00,WeatherDisplay:10.37,2013-03-20 17:52:00,
2013-03-20 10:57:00,67.4,39.5,29.92,SW,218,22.0,25.0,36,0.00,CLR,,0.00,WeatherDisplay:10.37,2013-03-20 17:57:00,
2013-03-20 11:02:00,67.6,39.0,29.92,SW,219,15.0,25.0,35,0.00,CLR,,0.00,WeatherDisplay:10.37,2013-03-20 18:02:00,
2013-03-20 11:07:00,68.1,39.4,29.92,SW,225,24.0,30.0,35,0.00,CLR,,0.00,WeatherDisplay:10.37,2013-03-20 18:07:00,
2013-03-20 11:12:00,67.9,39.2,29.92,SW,224,21.0,27.0,35,0.00,CLR,,0.00,WeatherDisplay:10.37,2013-03-20 18:12:00,
2013-03-20 11:17:00,68.1,38.7,29.92,SW,222,21.0,30.0,34,0.00,CLR,,0.00,WeatherDisplay:10.37,2013-03-20 18:17:00,
2013-03-20 11:22:00,68.1,37.9,29.92,SW,223,25.0,29.0,33,0.00,CLR,,0.00,WeatherDisplay:10.37,2013-03-20 18:22:00,
2013-03-20 11:27:00,68.1,38.6,29.92,SW,218,17.0,22.0,34,0.00,CLR,,0.00,WeatherDisplay:10.37,2013-03-20 18:27:00,
2013-03-20 11:32:00,68.5,37.5,29.92,SW,221,25.0,30.0,32,0.00,CLR,,0.00,WeatherDisplay:10.37,2013-03-20 18:32:00,
2013-03-20 11:37:00,68.7,36.8,29.92,SW,229,25.0,29.0,31,0.00,CLR,,0.00,WeatherDisplay:10.37,2013-03-20 18:37:00,
2013-03-20 11:42:00,69.5,37.5,29.92,SSW,208,28.8,28.8,31,0.00,OVC,,0.00,WeatherDisplay:10.37,2013-03-20 18:42:00,
2013-03-20 11:47:00,68.9,37.8,29.92,SW,221,25.0,31.0,32,0.00,CLR,,0.00,WeatherDisplay:10.37,2013-03-20 18:47:00,
2013-03-20 11:52:00,68.9,37.0,29.92,SW,224,24.0,29.0,31,0.00,CLR,,0.00,WeatherDisplay:10.37,2013-03-20 18:52:00,
2013-03-20 11:57:00,69.0,37.1,29.92,SW,236,24.0,31.0,31,0.00,CLR,,0.00,WeatherDisplay:10.37,2013-03-20 18:57:00,
2013-03-20 12:02:00,69.6,36.0,29.91,WSW,243,26.0,37.0,29,0.00,,,0.00,WeatherDisplay:10.37,2013-03-20 19:02:00,
2013-03-20 12:07:00,69.8,36.9,29.92,WSW,250,23.0,30.0,30,0.00,CLR,,0.00,WeatherDisplay:10.37,2013-03-20 19:07:00,
2013-03-20 12:12:00,69.3,37.3,29.92,West,259,21.0,28.0,31,0.00,CLR,,0.00,WeatherDisplay:10.37,2013-03-20 19:12:00,
2013-03-20 12:17:00,69.5,35.0,29.92,West,259,28.0,32.0,28,0.00,CLR,,0.00,WeatherDisplay:10.37,2013-03-20 19:17:00,
2013-03-20 12:22:00,68.7,36.0,29.93,WSW,256,24.0,29.0,30,0.00,CLR,,0.00,WeatherDisplay:10.37,2013-03-20 19:22:00,
2013-03-20 12:27:00,68.6,35.9,29.93,WSW,247,23.0,30.0,30,0.00,CLR,,0.00,WeatherDisplay:10.37,2013-03-20 19:27:00,
2013-03-20 12:32:00,69.1,36.3,29.92,WSW,245,22.0,27.0,30,0.00,CLR,,0.00,WeatherDisplay:10.37,2013-03-20 19:32:00,
2013-03-20 12:37:00,69.3,38.1,29.92,WSW,251,20.0,29.0,32,0.00,CLR,,0.00,WeatherDisplay:10.37,2013-03-20 19:37:00,
2013-03-20 12:42:00,69.6,38.4,29.92,WSW,250,17.0,31.0,32,0.00,CLR,,0.00,WeatherDisplay:10.37,2013-03-20 19:42:00,
2013-03-20 12:47:00,70.4,37.5,29.92,WSW,254,22.0,28.0,30,0.00,CLR,,0.00,WeatherDisplay:10.37,2013-03-20 19:47:00,
2013-03-20 12:52:00,69.9,36.2,29.92,West,259,22.0,26.0,29,0.00,CLR,,0.00,WeatherDisplay:10.37,2013-03-20 19:52:00,
2013-03-20 12:57:00,70.0,36.3,29.92,WSW,257,21.0,24.0,29,0.00,CLR,,0.00,WeatherDisplay:10.37,2013-03-20 19:57:00,
2013-03-20 13:02:00,69.7,36.0,29.92,WSW,255,22.0,29.0,29,0.00,CLR,,0.00,WeatherDisplay:10.37,2013-03-20 20:02:00,
2013-03-20 13:07:00,69.1,38.0,29.92,WSW,254,23.0,33.0,32,0.00,CLR,,0.00,WeatherDisplay:10.37,2013-03-20 20:07:00,
2013-03-20 13:12:00,69.5,38.3,29.92,WSW,241,21.0,31.0,32,0.00,CLR,,0.00,WeatherDisplay:10.37,2013-03-20 20:12:00,
2013-03-20 13:17:00,69.5,36.6,29.92,WSW,244,23.0,31.0,30,0.00,CLR,,0.00,WeatherDisplay:10.37,2013-03-20 20:17:00,
2013-03-20 13:22:00,69.6,35.9,29.92,WSW,241,24.0,30.0,29,0.00,CLR,,0.00,WeatherDisplay:10.37,2013-03-20 20:22:00,
2013-03-20 13:27:00,70.0,36.3,29.91,SW,233,23.0,28.0,29,0.00,CLR,,0.00,WeatherDisplay:10.37,2013-03-20 20:27:00,
2013-03-20 13:32:00,69.8,35.2,29.90,WSW,242,24.0,31.0,28,0.00,CLR,,0.00,WeatherDisplay:10.37,2013-03-20 20:32:00,
2013-03-20 13:37:00,71.6,31.8,29.90,WSW,239,29.0,38.0,23,0.00,,,0.00,WeatherDisplay:10.37,2013-03-20 20:37:00,
2013-03-20 13:42:00,69.6,30.1,29.90,WSW,239,33.0,40.0,23,0.00,,,0.00,WeatherDisplay:10.37,2013-03-20 20:42:00,
2013-03-20 13:47:00,69.5,30.0,29.89,WSW,247,33.0,44.0,23,0.00,,,0.00,WeatherDisplay:10.37,2013-03-20 20:47:00,
2013-03-20 13:52:00,70.1,27.1,29.89,WSW,245,35.0,41.0,20,0.00,,,0.00,WeatherDisplay:10.37,2013-03-20 20:52:00,
2013-03-20 13:57:00,70.7,22.3,29.88,WSW,246,35.0,39.0,16,0.00,,,0.00,WeatherDisplay:10.37,2013-03-20 20:57:00,
2013-03-20 14:02:00,70.8,25.1,29.88,WSW,247,36.0,43.0,18,0.00,,,0.00,WeatherDisplay:10.37,2013-03-20 21:02:00,
2013-03-20 14:07:00,71.4,26.9,29.87,WSW,247,31.0,43.0,19,0.00,,,0.00,WeatherDisplay:10.37,2013-03-20 21:07:00,
2013-03-20 14:12:00,72.1,24.9,29.87,WSW,249,32.0,41.0,17,0.00,,,0.00,WeatherDisplay:10.37,2013-03-20 21:12:00,
2013-03-20 14:17:00,70.8,31.2,29.87,WSW,251,33.0,40.0,23,0.00,,,0.00,WeatherDisplay:10.37,2013-03-20 21:17:00,
2013-03-20 14:22:00,70.1,35.5,29.87,WSW,253,35.0,41.0,28,0.00,,,0.00,WeatherDisplay:10.37,2013-03-20 21:22:00,
2013-03-20 14:27:00,70.3,34.7,29.87,WSW,250,35.0,40.0,27,0.00,,,0.00,WeatherDisplay:10.37,2013-03-20 21:27:00,
2013-03-20 14:32:00,69.6,36.7,29.87,WSW,244,33.0,40.0,30,0.00,,,0.00,WeatherDisplay:10.37,2013-03-20 21:32:00,
2013-03-20 14:37:00,69.6,36.8,29.87,WSW,241,32.0,41.0,30,0.00,,,0.00,WeatherDisplay:10.37,2013-03-20 21:37:00,
2013-03-20 14:42:00,69.6,36.8,29.87,WSW,238,31.0,40.0,30,0.00,,,0.00,WeatherDisplay:10.37,2013-03-20 21:42:00,
2013-03-20 14:47:00,69.3,35.6,29.87,SW,234,33.0,44.0,29,0.00,,,0.00,WeatherDisplay:10.37,2013-03-20 21:47:00,
2013-03-20 14:52:00,70.5,36.7,29.87,SW,231,33.0,43.0,29,0.00,,,0.00,WeatherDisplay:10.37,2013-03-20 21:52:00,
2013-03-20 14:58:00,69.1,33.7,29.87,SW,228,35.0,44.0,27,0.00,,,0.00,WeatherDisplay:10.37,2013-03-20 21:58:00,
2013-03-20 15:03:00,69.9,32.5,29.87,SW,219,41.0,41.0,25,0.00,OVC,,0.00,WeatherDisplay:10.37,2013-03-20 22:03:00,
2013-03-20 15:08:00,70.1,32.6,29.87,SW,229,44.0,44.0,25,0.00,OVC,,0.00,WeatherDisplay:10.37,2013-03-20 22:08:00,
2013-03-20 15:13:00,69.6,32.2,29.87,WSW,248,40.3,40.3,25,0.00,OVC,,0.00,WeatherDisplay:10.37,2013-03-20 22:13:00,
2013-03-20 15:18:00,69.2,35.6,29.88,SW,232,43.7,43.7,29,0.00,OVC,,0.00,WeatherDisplay:10.37,2013-03-20 22:18:00,
2013-03-20 15:24:00,68.8,36.1,29.87,WSW,243,42.6,42.6,30,0.00,OVC,,0.00,WeatherDisplay:10.37,2013-03-20 22:24:00,
2013-03-20 15:29:00,68.7,36.8,29.88,WSW,242,42.0,42.0,31,0.00,OVC,,0.00,WeatherDisplay:10.37,2013-03-20 22:29:00,
2013-03-20 15:34:00,68.4,37.4,29.88,WSW,242,39.1,39.1,32,0.00,OVC,,0.00,WeatherDisplay:10.37,2013-03-20 22:34:00,
2013-03-20 15:39:00,68.1,37.1,29.88,SW,234,43.7,43.7,32,0.00,OVC,,0.00,WeatherDisplay:10.37,2013-03-20 22:39:00,
2013-03-20 15:45:00,68.2,38.0,29.88,SW,219,42.6,42.6,33,0.00,OVC,,0.00,WeatherDisplay:10.37,2013-03-20 22:45:00,
2013-03-20 15:50:00,68.2,37.2,29.88,WSW,238,40.3,40.3,32,0.00,OVC,,0.00,WeatherDisplay:10.37,2013-03-20 22:50:00,
2013-03-20 15:55:00,67.8,36.8,29.88,WSW,240,38.0,38.0,32,0.00,OVC,,0.00,WeatherDisplay:10.37,2013-03-20 22:55:00,
2013-03-20 16:00:00,67.6,37.5,29.88,SW,217,42.6,42.6,33,0.00,OVC,,0.00,WeatherDisplay:10.37,2013-03-20 23:00:00,
2013-03-20 16:05:00,67.5,36.6,29.88,WSW,242,42.6,42.6,32,0.00,OVC,,0.00,WeatherDisplay:10.37,2013-03-20 23:05:00,
2013-03-20 16:10:00,67.4,36.5,29.88,WSW,254,39.1,39.1,32,0.00,OVC,,0.00,WeatherDisplay:10.37,2013-03-20 23:10:00,
2013-03-20 16:16:00,68.3,34.8,29.88,SW,234,42.6,42.6,29,0.00,OVC,,0.00,WeatherDisplay:10.37,2013-03-20 23:16:00,
2013-03-20 16:22:00,68.3,34.8,29.88,SSW,213,34.5,34.5,29,0.00,OVC,,0.00,WeatherDisplay:10.37,2013-03-20 23:22:00,
2013-03-20 16:27:00,68.2,33.8,29.88,SW,225,35.7,35.7,28,0.00,OVC,,0.00,WeatherDisplay:10.37,2013-03-20 23:27:00,
2013-03-20 16:32:00,67.4,34.9,29.88,WSW,244,41.4,41.4,30,0.00,OVC,,0.00,WeatherDisplay:10.37,2013-03-20 23:32:00,
2013-03-20 16:37:00,67.6,35.9,29.88,WSW,245,38.0,38.0,31,0.00,OVC,,0.00,WeatherDisplay:10.37,2013-03-20 23:37:00,
2013-03-20 16:42:00,67.5,35.8,29.87,WSW,244,41.0,41.0,31,0.00,OVC,,0.00,WeatherDisplay:10.37,2013-03-20 23:42:00,
2013-03-20 16:47:00,67.1,37.0,29.88,SW,230,35.0,41.0,33,0.00,,,0.00,WeatherDisplay:10.37,2013-03-20 23:47:00,
2013-03-20 16:52:00,66.7,36.7,29.88,SW,229,30.0,43.0,33,0.00,,,0.00,WeatherDisplay:10.37,2013-03-20 23:52:00,
2013-03-20 16:57:00,66.4,37.1,29.87,SW,233,36.0,46.0,34,0.00,,,0.00,WeatherDisplay:10.37,2013-03-20 23:57:00,
2013-03-20 17:02:00,66.3,37.1,29.87,SW,235,36.0,41.0,34,0.00,,,0.00,WeatherDisplay:10.37,2013-03-21 00:02:00,
2013-03-20 17:07:00,65.8,36.7,29.87,SW,232,32.0,39.0,34,0.00,,,0.00,WeatherDisplay:10.37,2013-03-21 00:07:00,
2013-03-20 17:12:00,66.0,36.8,29.87,SW,231,32.0,40.0,34,0.00,,,0.00,WeatherDisplay:10.37,2013-03-21 00:12:00,
2013-03-20 17:18:00,66.1,36.9,29.88,SW,226,34.5,34.5,34,0.00,OVC,,0.00,WeatherDisplay:10.37,2013-03-21 00:18:00,
2013-03-20 17:23:00,65.7,37.3,29.87,SW,218,34.5,34.5,35,0.00,OVC,,0.00,WeatherDisplay:10.37,2013-03-21 00:23:00,
2013-03-20 17:28:00,65.7,37.3,29.87,SW,222,32.2,32.2,35,0.00,OVC,,0.00,WeatherDisplay:10.37,2013-03-21 00:28:00,
2013-03-20 17:33:00,65.8,35.9,29.87,South,186,29.9,29.9,33,0.00,OVC,,0.00,WeatherDisplay:10.37,2013-03-21 00:33:00,
2013-03-20 17:39:00,65.7,35.8,29.87,SSW,200,27.6,27.6,33,0.00,OVC,,0.00,WeatherDisplay:10.37,2013-03-21 00:39:00,
2013-03-20 17:44:00,65.4,34.0,29.87,SSW,211,31.1,31.1,31,0.00,OVC,,0.00,WeatherDisplay:10.37,2013-03-21 00:44:00,
2013-03-20 17:49:00,65.3,33.0,29.87,SSW,211,29.9,29.9,30,0.00,OVC,,0.00,WeatherDisplay:10.37,2013-03-21 00:49:00,
2013-03-20 17:54:00,65.4,32.3,29.88,SW,226,31.0,31.0,29,0.00,OVC,,0.00,WeatherDisplay:10.37,2013-03-21 00:54:00,
2013-03-20 17:59:00,64.8,30.9,29.88,SSW,207,28.8,28.8,28,0.00,OVC,,0.00,WeatherDisplay:10.37,2013-03-21 00:59:00,
2013-03-20 18:04:00,64.9,31.0,29.87,SSW,209,35.7,35.7,28,0.00,OVC,,0.00,WeatherDisplay:10.37,2013-03-21 01:04:00,
2013-03-20 18:10:00,64.6,35.6,29.87,SSW,192,26.5,26.5,34,0.00,OVC,,0.00,WeatherDisplay:10.37,2013-03-21 01:10:00,
2013-03-20 18:15:00,64.0,37.2,29.88,SSW,192,26.5,26.5,37,0.00,OVC,,0.00,WeatherDisplay:10.37,2013-03-21 01:15:00,
2013-03-20 18:20:00,64.1,33.6,29.87,SSW,206,32.2,32.2,32,0.00,OVC,,0.00,WeatherDisplay:10.37,2013-03-21 01:20:00,
2013-03-20 18:25:00,64.0,35.0,29.87,SSW,211,25.0,25.0,34,0.00,OVC,,0.00,WeatherDisplay:10.37,2013-03-21 01:25:00,
2013-03-20 18:30:00,63.8,34.9,29.87,SSW,207,31.1,31.1,34,0.00,OVC,,0.00,WeatherDisplay:10.37,2013-03-21 01:30:00,
2013-03-20 18:35:00,63.7,34.0,29.87,SW,215,26.5,26.5,33,0.00,OVC,,0.00,WeatherDisplay:10.37,2013-03-21 01:35:00,
2013-03-20 18:41:00,63.4,36.0,29.87,SSW,197,29.9,29.9,36,0.00,OVC,,0.00,WeatherDisplay:10.37,2013-03-21 01:41:00,
2013-03-20 18:46:00,62.3,40.1,29.86,SSW,205,34.5,34.5,44,0.00,OVC,,0.00,WeatherDisplay:10.37,2013-03-21 01:46:00,
2013-03-20 18:51:00,62.1,38.7,29.86,SW,216,28.8,28.8,42,0.00,OVC,,0.00,WeatherDisplay:10.37,2013-03-21 01:51:00,
2013-03-20 18:56:00,62.0,38.6,29.86,SSW,199,28.0,28.0,42,0.00,OVC,,0.00,WeatherDisplay:10.37,2013-03-21 01:56:00,
2013-03-20 19:01:00,62.2,38.8,29.85,South,183,26.5,26.5,42,0.00,OVC,,0.00,WeatherDisplay:10.37,2013-03-21 02:01:00,
2013-03-20 19:07:00,62.0,38.6,29.85,South,190,26.0,26.0,42,0.00,OVC,,0.00,WeatherDisplay:10.37,2013-03-21 02:07:00,
2013-03-20 19:12:00,61.8,39.6,29.86,SSW,202,30.0,30.0,44,0.00,OVC,,0.00,WeatherDisplay:10.37,2013-03-21 02:12:00,
2013-03-20 19:17:00,61.8,39.6,29.87,South,190,34.5,34.5,44,0.00,OVC,,0.00,WeatherDisplay:10.37,2013-03-21 02:17:00,
2013-03-20 19:22:00,61.8,39.6,29.87,SSW,196,29.9,29.9,44,0.00,OVC,,0.00,WeatherDisplay:10.37,2013-03-21 02:22:00,
2013-03-20 19:27:00,62.0,39.2,29.86,South,184,27.0,27.0,43,0.00,OVC,,0.00,WeatherDisplay:10.37,2013-03-21 02:27:00,
2013-03-20 19:32:00,60.7,41.9,29.86,South,178,21.9,21.9,50,0.00,OVC,,0.00,WeatherDisplay:10.37,2013-03-21 02:32:00,
2013-03-20 19:37:00,61.6,37.7,29.85,SSW,209,27.6,27.6,41,0.00,OVC,,0.00,WeatherDisplay:10.37,2013-03-21 02:37:00,
2013-03-20 19:42:00,62.0,38.0,29.85,SSW,200,21.0,27.0,41,0.00,CLR,,0.00,WeatherDisplay:10.37,2013-03-21 02:42:00,
2013-03-20 19:48:00,60.6,41.3,29.85,South,169,25.3,25.3,49,0.00,OVC,,0.00,WeatherDisplay:10.37,2013-03-21 02:48:00,
2013-03-20 19:53:00,60.7,42.5,29.84,South,180,31.0,31.0,51,0.00,OVC,,0.00,WeatherDisplay:10.37,2013-03-21 02:53:00,
2013-03-20 19:58:00,60.0,42.3,29.84,SSW,192,28.8,28.8,52,0.00,OVC,,0.00,WeatherDisplay:10.37,2013-03-21 02:58:00,
2013-03-20 20:03:00,60.3,41.6,29.84,South,191,25.3,25.3,50,0.00,OVC,,0.00,WeatherDisplay:10.37,2013-03-21 03:03:00,
2013-03-20 20:08:00,60.8,38.7,29.86,West,263,19.6,19.6,44,0.00,OVC,,0.00,WeatherDisplay:10.37,2013-03-21 03:08:00,
2013-03-20 20:13:00,61.2,38.5,29.85,SW,229,26.5,26.5,43,0.00,OVC,,0.00,WeatherDisplay:10.37,2013-03-21 03:13:00,
2013-03-20 20:18:00,61.3,38.0,29.85,SSW,203,34.5,34.5,42,0.00,OVC,,0.00,WeatherDisplay:10.37,2013-03-21 03:18:00,
2013-03-20 20:24:00,61.3,38.0,29.85,SSW,198,27.6,27.6,42,0.00,OVC,,0.00,WeatherDisplay:10.37,2013-03-21 03:24:00,
2013-03-20 20:29:00,61.8,39.1,29.85,West,260,21.9,21.9,43,0.00,OVC,,0.00,WeatherDisplay:10.37,2013-03-21 03:29:00,
2013-03-20 20:34:00,61.8,39.1,29.85,West,275,17.3,17.3,43,0.00,OVC,,0.00,WeatherDisplay:10.37,2013-03-21 03:34:00,
2013-03-20 20:39:00,62.0,38.6,29.85,NW,319,13.8,13.8,42,0.00,OVC,,0.00,WeatherDisplay:10.37,2013-03-21 03:39:00,
2013-03-20 20:44:00,61.8,38.4,29.86,NW,309,3.5,3.5,42,0.00,OVC,,0.00,WeatherDisplay:10.37,2013-03-21 03:44:00,
2013-03-20 20:50:00,61.7,39.0,29.86,SSE,155,4.0,4.0,43,0.00,OVC,,0.00,WeatherDisplay:10.37,2013-03-21 03:50:00,
2013-03-20 20:55:00,61.7,39.6,29.86,WNW,294,12.7,12.7,44,0.00,OVC,,0.00,WeatherDisplay:10.37,2013-03-21 03:55:00,
2013-03-20 21:00:00,61.1,39.6,29.86,SW,221,16.1,16.1,45,0.00,OVC,,0.00,WeatherDisplay:10.37,2013-03-21 04:00:00,
2013-03-20 21:01:00,60.9,39.4,29.86,SW,229,22.0,22.0,45,0.00,OVC,,0.00,WeatherDisplay:10.37,2013-03-21 04:01:00,
2013-03-20 21:06:00,61.3,39.2,29.86,WSW,240,21.0,21.0,44,0.00,OVC,,0.00,WeatherDisplay:10.37,2013-03-21 04:06:00,
2013-03-20 21:11:00,60.7,39.8,29.86,SSW,207,24.2,24.2,46,0.00,OVC,,0.00,WeatherDisplay:10.37,2013-03-21 04:11:00,
2013-03-20 21:16:00,60.9,40.0,29.86,SSW,202,28.8,28.8,46,0.00,OVC,,0.00,WeatherDisplay:10.37,2013-03-21 04:16:00,
2013-03-20 21:22:00,60.9,39.4,29.86,SW,221,28.8,28.8,45,0.00,OVC,,0.00,WeatherDisplay:10.37,2013-03-21 04:22:00,
2013-03-20 21:27:00,60.7,39.8,29.87,SW,231,32.2,32.2,46,0.00,OVC,,0.00,WeatherDisplay:10.37,2013-03-21 04:27:00,
2013-03-20 21:32:00,60.5,40.2,29.86,WSW,237,35.7,35.7,47,0.00,OVC,,0.00,WeatherDisplay:10.37,2013-03-21 04:32:00,
2013-03-20 21:37:00,60.2,40.4,29.86,SW,225,27.0,27.0,48,0.00,CLR,,0.00,WeatherDisplay:10.37,2013-03-21 04:37:00,
2013-03-20 21:42:00,60.0,41.3,29.86,SW,222,41.4,41.4,50,0.00,OVC,,0.00,WeatherDisplay:10.37,2013-03-21 04:42:00,
2013-03-20 21:47:00,59.7,41.0,29.86,SW,215,29.0,29.5,50,0.00,OVC,,0.00,WeatherDisplay:10.37,2013-03-21 04:47:00,
2013-03-20 21:52:00,59.9,41.2,29.87,SW,219,38.0,38.0,50,0.00,OVC,,0.00,WeatherDisplay:10.37,2013-03-21 04:52:00,
2013-03-20 21:57:00,59.4,41.3,29.87,SW,224,24.0,38.0,51,0.00,CLR,,0.00,WeatherDisplay:10.37,2013-03-21 04:57:00,
2013-03-20 22:02:00,59.6,41.4,29.87,SW,217,24.0,31.0,51,0.00,CLR,,0.00,WeatherDisplay:10.37,2013-03-21 05:02:00,
2013-03-20 22:08:00,59.2,42.1,29.87,SW,229,43.0,43.0,53,0.00,OVC,,0.00,WeatherDisplay:10.37,2013-03-21 05:08:00,
2013-03-20 22:13:00,59.2,42.1,29.87,SW,227,39.1,39.1,53,0.00,OVC,,0.00,WeatherDisplay:10.37,2013-03-21 05:13:00,
2013-03-20 22:18:00,59.0,41.9,29.87,SW,215,34.5,34.5,53,0.00,OVC,,0.00,WeatherDisplay:10.37,2013-03-21 05:18:00,
2013-03-20 22:23:00,58.9,41.8,29.87,SW,215,34.5,34.5,53,0.00,OVC,,0.00,WeatherDisplay:10.37,2013-03-21 05:23:00,
2013-03-20 22:29:00,59.2,41.6,29.86,WSW,250,36.8,36.8,52,0.00,OVC,,0.00,WeatherDisplay:10.37,2013-03-21 05:29:00,
2013-03-20 22:34:00,59.1,41.0,29.86,WSW,245,29.0,29.0,51,0.00,OVC,,0.00,WeatherDisplay:10.37,2013-03-21 05:34:00,
2013-03-20 22:39:00,59.3,40.7,29.86,SW,225,31.1,31.1,50,0.00,OVC,,0.00,WeatherDisplay:10.37,2013-03-21 05:39:00,
2013-03-20 22:44:00,59.1,40.5,29.86,SW,219,31.1,31.1,50,0.00,OVC,,0.00,WeatherDisplay:10.37,2013-03-21 05:44:00,
2013-03-20 22:49:00,59.1,40.5,29.86,SW,218,27.6,27.6,50,0.00,OVC,,0.00,WeatherDisplay:10.37,2013-03-21 05:49:00,
2013-03-20 22:54:00,59.1,39.9,29.86,SSW,213,26.5,26.5,49,0.00,OVC,,0.00,WeatherDisplay:10.37,2013-03-21 05:54:00,
2013-03-20 22:59:00,59.3,39.6,29.86,SW,218,38.0,38.0,48,0.00,OVC,,0.00,WeatherDisplay:10.37,2013-03-21 05:59:00,
2013-03-20 23:04:00,59.1,39.9,29.86,SSW,200,19.6,19.6,49,0.00,OVC,,0.00,WeatherDisplay:10.37,2013-03-21 06:04:00,
2013-03-20 23:10:00,59.0,40.4,29.86,SSW,211,27.6,27.6,50,0.00,OVC,,0.00,WeatherDisplay:10.37,2013-03-21 06:10:00,
2013-03-20 23:15:00,58.7,40.6,29.86,SSW,192,26.5,26.5,51,0.00,OVC,,0.00,WeatherDisplay:10.37,2013-03-21 06:15:00,
2013-03-20 23:20:00,58.7,40.1,29.86,SSW,195,19.6,19.6,50,0.00,OVC,,0.00,WeatherDisplay:10.37,2013-03-21 06:20:00,
2013-03-20 23:25:00,58.7,40.1,29.86,SW,215,29.0,29.0,50,0.00,OVC,,0.00,WeatherDisplay:10.37,2013-03-21 06:25:00,
2013-03-20 23:30:00,58.4,40.3,29.85,SSW,194,20.0,20.0,51,0.00,OVC,,0.00,WeatherDisplay:10.37,2013-03-21 06:30:00,
2013-03-20 23:35:00,58.6,40.5,29.86,SSW,198,27.6,27.6,51,0.00,OVC,,0.00,WeatherDisplay:10.37,2013-03-21 06:35:00,
2013-03-20 23:40:00,58.7,40.1,29.85,SW,220,34.0,34.0,50,0.00,OVC,,0.00,WeatherDisplay:10.37,2013-03-21 06:40:00,
2013-03-20 23:45:00,58.3,40.2,29.85,SSW,202,19.6,19.6,51,0.00,CLR,,0.00,WeatherDisplay:10.37,2013-03-21 06:45:00,
2013-03-20 23:50:00,58.5,40.4,29.84,SW,215,24.0,24.0,51,0.00,OVC,,0.00,WeatherDisplay:10.37,2013-03-21 06:50:00,
2013-03-20 23:55:00,58.2,40.6,29.85,SW,230,26.5,26.5,52,0.00,OVC,,0.00,WeatherDisplay:10.37,2013-03-21 06:55:00,